createdAt,value
2022-11-24T00:00:04.050Z,2.28
2022-11-24T00:02:05.506Z,2.40
2022-11-24T00:04:07.032Z,2.33
2022-11-24T00:06:09.462Z,2.67
2022-11-24T00:08:10.945Z,2.30
2022-11-24T00:10:12.294Z,2.08
2022-11-24T00:12:14.907Z,1.98
2022-11-24T00:14:16.341Z,1.77
2022-11-24T00:16:17.784Z,1.50
2022-11-24T00:18:19.244Z,1.55
2022-11-24T00:20:20.649Z,1.70
2022-11-24T00:22:22.027Z,3.00
2022-11-24T00:24:23.450Z,3.83
2022-11-24T00:26:24.796Z,6.57
2022-11-24T00:28:32.691Z,2.38
2022-11-24T00:30:34.115Z,3.70
2022-11-24T00:32:35.515Z,5.30
2022-11-24T00:34:37.008Z,3.67
2022-11-24T00:36:38.754Z,1.92
2022-11-24T00:38:40.147Z,1.40
2022-11-24T00:40:42.682Z,1.85
2022-11-24T00:42:44.070Z,1.67
2022-11-24T00:44:45.448Z,1.58
2022-11-24T00:46:46.923Z,1.88
2022-11-24T00:48:48.534Z,1.88
2022-11-24T00:51:03.035Z,2.13
2022-11-24T00:53:04.447Z,1.70
2022-11-24T00:55:05.850Z,2.05
2022-11-24T00:57:07.211Z,1.95
2022-11-24T00:59:08.584Z,1.95
2022-11-24T01:01:32.923Z,1.60
2022-11-24T01:03:34.764Z,2.13
2022-11-24T01:05:36.618Z,1.80
2022-11-24T01:07:38.037Z,1.80
2022-11-24T01:09:39.518Z,2.10
2022-11-24T01:11:59.410Z,1.63
2022-11-24T01:14:00.806Z,1.58
2022-11-24T01:16:02.298Z,1.88
2022-11-24T01:18:04.093Z,1.98
2022-11-24T01:20:06.335Z,1.95
2022-11-24T01:22:07.813Z,2.20
2022-11-24T01:24:12.594Z,1.83
2022-11-24T01:26:15.712Z,1.90
2022-11-24T01:28:17.070Z,2.00
2022-11-24T01:30:18.554Z,1.80
2022-11-24T01:32:19.924Z,1.80
2022-11-24T01:34:21.383Z,2.08
2022-11-24T01:36:22.855Z,1.60
2022-11-24T01:38:24.733Z,2.08
2022-11-24T01:40:26.219Z,2.10
2022-11-24T01:42:36.811Z,1.80
2022-11-24T01:44:38.227Z,1.90
2022-11-24T01:46:45.899Z,1.75
2022-11-24T01:48:57.933Z,2.03
2022-11-24T01:51:22.273Z,1.90
2022-11-24T01:53:24.230Z,1.70
2022-11-24T01:55:39.290Z,1.88
2022-11-24T01:58:01.021Z,2.03
2022-11-24T02:00:05.212Z,1.92
2022-11-24T02:02:06.787Z,2.78
2022-11-24T02:04:11.078Z,2.03
2022-11-24T02:06:20.948Z,1.90
2022-11-24T02:08:45.366Z,1.90
2022-11-24T02:10:47.362Z,1.85
2022-11-24T02:12:50.409Z,2.00
2022-11-24T02:14:52.302Z,1.63
2022-11-24T02:16:53.773Z,1.98
2022-11-24T02:18:55.300Z,1.52
2022-11-24T02:20:56.880Z,2.47
2022-11-24T02:23:17.027Z,2.30
2022-11-24T02:25:21.594Z,2.70
2022-11-24T02:27:23.402Z,2.53
2022-11-24T02:29:24.760Z,2.00
2022-11-24T02:31:26.267Z,1.88
2022-11-24T02:33:28.072Z,1.70
2022-11-24T02:35:29.440Z,1.90
2022-11-24T02:37:30.866Z,1.85
2022-11-24T02:39:32.238Z,2.35
2022-11-24T02:41:33.637Z,1.95
2022-11-24T02:43:37.859Z,1.67
2022-11-24T02:45:39.317Z,1.77
2022-11-24T02:47:40.656Z,1.80
2022-11-24T02:49:42.233Z,1.90
2022-11-24T02:51:43.745Z,1.83
2022-11-24T02:53:45.308Z,1.92
2022-11-24T02:55:46.731Z,1.80
2022-11-24T02:57:48.154Z,1.75
2022-11-24T02:59:49.575Z,1.63
2022-11-24T03:01:50.998Z,2.10
2022-11-24T03:03:52.485Z,2.65
2022-11-24T03:05:54.084Z,1.88
2022-11-24T03:07:55.537Z,2.20
2022-11-24T03:09:56.961Z,1.50
2022-11-24T03:11:58.311Z,2.13
2022-11-24T03:13:59.689Z,1.85
2022-11-24T03:16:01.221Z,1.90
2022-11-24T03:18:03.036Z,2.45
2022-11-24T03:20:05.413Z,1.90
2022-11-24T03:22:06.989Z,2.28
2022-11-24T03:24:08.984Z,1.80
2022-11-24T03:26:14.394Z,1.88
2022-11-24T03:28:15.894Z,2.17
2022-11-24T03:30:17.321Z,1.90
2022-11-24T03:32:18.745Z,1.48
2022-11-24T03:34:20.117Z,1.75
2022-11-24T03:36:28.928Z,1.95
2022-11-24T03:38:30.373Z,1.85
2022-11-24T03:40:31.785Z,2.22
2022-11-24T03:42:33.183Z,2.75
2022-11-24T03:44:34.834Z,2.20
2022-11-24T03:46:36.415Z,1.92
2022-11-24T03:48:37.857Z,1.83
2022-11-24T03:50:39.230Z,1.85
2022-11-24T03:52:40.728Z,1.77
2022-11-24T03:54:42.485Z,2.22
2022-11-24T03:56:43.979Z,2.15
2022-11-24T03:58:45.318Z,1.80
2022-11-24T04:00:53.097Z,1.90
2022-11-24T04:02:54.512Z,1.75
2022-11-24T04:04:55.890Z,1.70
2022-11-24T04:07:09.239Z,1.73
2022-11-24T04:09:10.633Z,1.75
2022-11-24T04:11:31.933Z,1.85
2022-11-24T04:13:33.382Z,2.13
2022-11-24T04:15:34.718Z,2.08
2022-11-24T04:17:36.159Z,2.40
2022-11-24T04:19:37.497Z,1.80
2022-11-24T04:21:39.036Z,2.22
2022-11-24T04:23:46.553Z,2.40
2022-11-24T04:25:47.994Z,2.20
2022-11-24T04:27:52.987Z,1.75
2022-11-24T04:29:54.331Z,1.95
2022-11-24T04:31:55.660Z,2.67
2022-11-24T04:33:57.089Z,1.77
2022-11-24T04:35:58.948Z,2.45
2022-11-24T04:38:03.233Z,2.50
2022-11-24T04:40:13.218Z,2.03
2022-11-24T04:42:14.578Z,2.63
2022-11-24T04:44:15.899Z,2.00
2022-11-24T04:46:17.591Z,1.85
2022-11-24T04:48:19.021Z,2.15
2022-11-24T04:50:20.835Z,2.17
2022-11-24T04:52:23.242Z,2.00
2022-11-24T04:54:24.675Z,2.25
2022-11-24T04:56:29.232Z,2.50
2022-11-24T04:58:30.559Z,2.42
2022-11-24T05:00:31.964Z,2.88
2022-11-24T05:02:33.414Z,2.45
2022-11-24T05:04:34.969Z,2.80
2022-11-24T05:06:36.474Z,2.65
2022-11-24T05:08:37.821Z,2.80
2022-11-24T05:10:40.060Z,2.65
2022-11-24T05:12:41.400Z,2.30
2022-11-24T05:14:42.676Z,2.28
2022-11-24T05:16:44.012Z,2.55
2022-11-24T05:18:45.545Z,2.70
2022-11-24T05:20:46.877Z,2.60
2022-11-24T05:22:50.403Z,2.08
2022-11-24T05:24:57.627Z,2.00
2022-11-24T05:26:58.894Z,2.10
2022-11-24T05:29:00.441Z,2.08
2022-11-24T05:31:02.335Z,2.38
2022-11-24T05:33:07.350Z,2.30
2022-11-24T05:35:09.834Z,2.47
2022-11-24T05:37:11.225Z,2.58
2022-11-24T05:39:18.398Z,2.40
2022-11-24T05:41:19.721Z,3.15
2022-11-24T05:43:21.031Z,2.58
2022-11-24T05:45:30.073Z,2.45
2022-11-24T05:47:31.701Z,2.10
2022-11-24T05:49:33.033Z,2.00
2022-11-24T05:51:34.584Z,2.33
2022-11-24T05:53:35.898Z,2.33
2022-11-24T05:55:40.929Z,1.92
2022-11-24T05:57:42.550Z,2.10
2022-11-24T05:59:44.075Z,2.00
2022-11-24T06:01:45.584Z,2.20
2022-11-24T06:03:47.028Z,2.67
2022-11-24T06:05:48.404Z,1.92
2022-11-24T06:07:49.847Z,1.83
2022-11-24T06:09:51.253Z,2.50
2022-11-24T06:11:52.644Z,2.80
2022-11-24T06:13:57.176Z,1.90
2022-11-24T06:16:01.089Z,2.78
2022-11-24T06:18:02.461Z,2.50
2022-11-24T06:20:04.482Z,2.15
2022-11-24T06:22:11.635Z,2.25
2022-11-24T06:24:13.027Z,2.20
2022-11-24T06:26:14.604Z,2.45
2022-11-24T06:28:15.902Z,1.70
2022-11-24T06:30:17.209Z,2.22
2022-11-24T06:32:18.750Z,2.00
2022-11-24T06:34:20.138Z,2.20
2022-11-24T06:36:21.499Z,2.03
2022-11-24T06:38:24.369Z,2.00
2022-11-24T06:40:25.867Z,1.90
2022-11-24T06:42:27.176Z,2.45
2022-11-24T06:44:28.449Z,1.98
2022-11-24T06:46:29.808Z,1.92
2022-11-24T06:48:31.376Z,1.63
2022-11-24T06:50:39.240Z,2.20
2022-11-24T06:52:40.702Z,2.08
2022-11-24T06:54:42.555Z,1.88
2022-11-24T06:56:43.892Z,1.80
2022-11-24T06:58:46.084Z,1.92
2022-11-24T07:00:47.399Z,1.60
2022-11-24T07:02:48.799Z,1.88
2022-11-24T07:04:53.022Z,1.80
2022-11-24T07:06:54.325Z,2.38
2022-11-24T07:08:55.732Z,2.00
2022-11-24T07:10:56.998Z,2.90
2022-11-24T07:12:58.364Z,1.85
2022-11-24T07:14:59.683Z,2.88
2022-11-24T07:17:02.544Z,2.20
2022-11-24T07:19:04.151Z,2.75
2022-11-24T07:21:05.672Z,2.05
2022-11-24T07:23:07.123Z,2.33
2022-11-24T07:25:11.297Z,2.20
2022-11-24T07:27:12.611Z,2.25
2022-11-24T07:29:16.876Z,2.20
2022-11-24T07:31:19.710Z,3.13
2022-11-24T07:33:25.106Z,2.17
2022-11-24T07:35:26.529Z,2.58
2022-11-24T07:37:31.236Z,2.20
2022-11-24T07:39:33.072Z,1.83
2022-11-24T07:41:34.386Z,2.17
2022-11-24T07:43:36.439Z,2.20
2022-11-24T07:45:38.214Z,2.60
2022-11-24T07:47:40.344Z,2.00
2022-11-24T07:49:41.760Z,2.95
2022-11-24T07:51:43.148Z,2.17
2022-11-24T07:53:45.441Z,1.80
2022-11-24T07:56:02.944Z,1.98
2022-11-24T07:58:04.399Z,2.42
2022-11-24T08:00:06.337Z,5.43
2022-11-24T08:02:09.486Z,2.83
2022-11-24T08:04:11.048Z,4.50
2022-11-24T08:06:27.319Z,2.60
2022-11-24T08:08:33.406Z,2.35
2022-11-24T08:10:34.886Z,1.85
2022-11-24T08:12:36.432Z,2.00
2022-11-24T08:14:40.519Z,1.83
2022-11-24T08:16:42.253Z,1.80
2022-11-24T08:18:44.319Z,1.92
2022-11-24T08:20:45.790Z,1.88
2022-11-24T08:22:47.376Z,2.08
2022-11-24T08:24:49.404Z,1.88
2022-11-24T08:26:50.951Z,2.58
2022-11-24T08:28:59.248Z,1.58
2022-11-24T08:31:22.200Z,1.70
2022-11-24T08:33:23.616Z,1.70
2022-11-24T08:35:25.278Z,1.70
2022-11-24T08:37:27.743Z,1.65
2022-11-24T08:39:29.210Z,1.73
2022-11-24T08:41:33.563Z,1.70
2022-11-24T08:43:38.127Z,2.13
2022-11-24T08:45:41.654Z,1.92
2022-11-24T08:47:45.341Z,2.60
2022-11-24T08:49:52.896Z,1.33
2022-11-24T08:51:56.837Z,1.42
2022-11-24T08:53:59.198Z,1.77
2022-11-24T08:56:01.228Z,1.95
2022-11-24T08:58:32.121Z,1.60
2022-11-24T09:00:34.043Z,1.63
2022-11-24T09:02:35.829Z,1.70
2022-11-24T09:04:38.586Z,2.13
2022-11-24T09:06:52.359Z,1.67
2022-11-24T09:08:57.183Z,2.25
2022-11-24T09:11:02.182Z,2.17
2022-11-24T09:13:06.311Z,1.35
2022-11-24T09:15:08.161Z,2.20
2022-11-24T09:17:09.758Z,1.63
2022-11-24T09:19:11.350Z,1.05
2022-11-24T09:21:15.368Z,3.92
2022-11-24T09:23:17.008Z,3.92
2022-11-24T09:25:18.643Z,1.40
2022-11-24T09:27:25.877Z,1.25
2022-11-24T09:29:27.347Z,1.33
2022-11-24T09:31:30.213Z,1.20
2022-11-24T09:33:31.997Z,1.35
2022-11-24T09:35:36.692Z,1.08
2022-11-24T09:37:38.256Z,1.60
2022-11-24T09:39:39.738Z,1.17
2022-11-24T09:42:00.106Z,1.40
2022-11-24T09:44:19.935Z,1.35
2022-11-24T09:46:43.460Z,1.20
2022-11-24T09:48:47.454Z,1.60
2022-11-24T09:50:49.607Z,1.27
2022-11-24T09:53:14.584Z,1.27
2022-11-24T09:55:36.194Z,1.23
2022-11-24T09:57:49.308Z,1.75
2022-11-24T09:59:51.671Z,1.20
2022-11-24T10:01:53.892Z,1.40
2022-11-24T10:03:57.728Z,1.40
2022-11-24T10:06:13.601Z,1.35
2022-11-24T10:08:31.570Z,2.45
2022-11-24T10:10:39.349Z,2.17
2022-11-24T10:12:59.282Z,1.60
2022-11-24T10:15:01.026Z,1.60
2022-11-24T10:17:25.947Z,1.52
2022-11-24T10:19:37.259Z,1.90
2022-11-24T10:21:49.452Z,1.63
2022-11-24T10:24:04.802Z,1.67
2022-11-24T10:26:16.279Z,1.40
2022-11-24T10:28:18.002Z,1.88
2022-11-24T10:30:21.211Z,1.50
2022-11-24T10:32:26.692Z,1.85
2022-11-24T10:34:37.474Z,1.50
2022-11-24T10:38:45.359Z,1.58
2022-11-24T10:41:05.339Z,2.50
2022-11-24T10:51:04.248Z,3.38
2022-11-24T10:55:47.879Z,1.55
2022-11-24T10:57:49.478Z,1.45
2022-11-24T11:02:31.255Z,1.45
2022-11-24T11:04:34.767Z,1.52
2022-11-24T11:06:38.095Z,1.15
2022-11-24T11:08:42.649Z,2.03
2022-11-24T11:10:44.596Z,1.23
2022-11-24T11:12:48.620Z,1.15
2022-11-24T11:17:24.733Z,1.70
2022-11-24T11:19:50.809Z,1.10
2022-11-24T11:22:00.691Z,1.25
2022-11-24T11:24:26.719Z,0.77
2022-11-24T11:26:32.270Z,0.98
2022-11-24T11:28:34.362Z,1.10
2022-11-24T11:35:21.121Z,1.58
2022-11-24T11:37:25.920Z,1.42
2022-11-24T11:39:32.235Z,1.60
2022-11-24T11:41:41.682Z,1.40
2022-11-24T11:43:45.696Z,1.83
2022-11-24T11:45:57.279Z,2.58
2022-11-24T11:47:59.427Z,1.40
2022-11-24T11:50:03.676Z,1.33
2022-11-24T11:52:08.211Z,1.83
2022-11-24T11:54:41.838Z,1.48
2022-11-24T11:56:50.286Z,2.35
2022-11-24T11:58:51.983Z,1.88
2022-11-24T12:00:58.920Z,1.50
2022-11-24T12:03:28.680Z,1.15
2022-11-24T12:05:34.533Z,1.60
2022-11-24T12:08:20.462Z,1.30
2022-11-24T12:10:25.548Z,1.52
2022-11-24T12:12:48.875Z,2.83
2022-11-24T12:14:58.713Z,2.42
2022-11-24T12:17:15.645Z,2.08
2022-11-24T12:19:27.628Z,1.90
2022-11-24T12:21:49.467Z,1.60
2022-11-24T12:23:57.436Z,2.15
2022-11-24T12:26:13.710Z,1.75
2022-11-24T12:28:26.550Z,1.10
2022-11-24T12:30:31.996Z,1.75
2022-11-24T12:32:52.764Z,1.45
2022-11-24T12:35:00.361Z,1.50
2022-11-24T12:37:08.465Z,1.48
2022-11-24T12:39:26.260Z,1.80
2022-11-24T12:41:55.576Z,1.80
2022-11-24T12:43:58.340Z,1.27
2022-11-24T12:46:03.499Z,1.60
2022-11-24T12:48:15.687Z,1.20
2022-11-24T12:50:21.474Z,2.10
2022-11-24T12:52:26.082Z,1.70
2022-11-24T12:54:47.585Z,1.88
2022-11-24T12:57:13.909Z,1.63
2022-11-24T12:59:18.011Z,1.67
2022-11-24T13:01:35.513Z,1.50
2022-11-24T13:03:37.104Z,1.42
2022-11-24T13:05:58.932Z,1.55
2022-11-24T13:08:03.017Z,1.70
2022-11-24T13:10:40.142Z,1.88
2022-11-24T13:12:53.394Z,2.20
2022-11-24T13:14:57.733Z,2.13
2022-11-24T13:17:47.498Z,1.80
2022-11-24T13:19:39.889Z,1.75
2022-11-24T13:21:41.632Z,1.75
2022-11-24T13:23:43.301Z,1.73
2022-11-24T13:26:04.690Z,1.95
2022-11-24T13:30:55.075Z,1.70
2022-11-24T13:33:01.677Z,1.52
2022-11-24T13:35:04.331Z,1.73
2022-11-24T13:37:26.645Z,1.65
2022-11-24T13:39:55.553Z,1.75
2022-11-24T13:41:56.923Z,2.58
2022-11-24T13:44:16.415Z,3.08
2022-11-24T13:46:38.269Z,1.92
2022-11-24T13:48:52.623Z,2.10
2022-11-24T13:50:54.255Z,2.00
2022-11-24T13:53:07.982Z,1.65
2022-11-24T13:55:12.270Z,2.28
2022-11-24T13:57:32.407Z,1.83
2022-11-24T13:59:35.340Z,1.90
2022-11-24T14:01:40.924Z,2.00
2022-11-24T14:04:07.108Z,2.10
2022-11-24T14:06:14.333Z,1.90
2022-11-24T14:08:33.137Z,1.77
2022-11-24T14:10:36.415Z,1.88
2022-11-24T14:12:37.971Z,2.15
2022-11-24T14:14:40.021Z,1.90
2022-11-24T14:16:42.632Z,2.10
2022-11-24T14:18:45.445Z,1.70
2022-11-24T14:20:47.035Z,2.13
2022-11-24T14:22:48.793Z,1.70
2022-11-24T14:24:53.926Z,1.83
2022-11-24T14:27:25.993Z,1.90
2022-11-24T14:29:54.120Z,1.80
2022-11-24T14:31:57.242Z,2.40
2022-11-24T14:34:15.997Z,2.45
2022-11-24T14:36:22.907Z,1.77
2022-11-24T14:38:24.415Z,1.92
2022-11-24T14:40:38.128Z,2.10
2022-11-24T14:42:48.713Z,2.40
2022-11-24T14:44:53.049Z,1.40
2022-11-24T14:47:05.266Z,1.65
2022-11-24T14:49:06.978Z,2.25
2022-11-24T14:51:11.181Z,2.22
2022-11-24T14:53:20.770Z,2.00
2022-11-24T14:55:26.382Z,1.95
2022-11-24T14:57:49.681Z,2.53
2022-11-24T15:00:11.441Z,2.30
2022-11-24T15:02:32.220Z,2.42
2022-11-24T15:07:15.532Z,3.47
2022-11-24T15:09:22.438Z,2.83
2022-11-24T15:11:29.849Z,4.13
2022-11-24T15:13:38.378Z,3.42
2022-11-24T15:15:40.073Z,2.53
2022-11-24T15:17:52.484Z,2.63
2022-11-24T15:19:58.772Z,3.30
2022-11-24T15:22:00.611Z,2.75
2022-11-24T15:24:06.321Z,2.67
2022-11-24T15:26:09.333Z,2.20
2022-11-24T15:28:16.964Z,2.75
2022-11-24T15:30:21.073Z,2.97
2022-11-24T15:32:22.430Z,4.18
2022-11-24T15:34:23.869Z,4.10
2022-11-24T15:36:25.281Z,3.83
2022-11-24T15:38:26.860Z,2.33
2022-11-24T15:40:35.768Z,3.15
2022-11-24T15:42:47.018Z,5.30
2022-11-24T15:44:48.508Z,2.95
2022-11-24T15:46:50.382Z,3.47
2022-11-24T15:49:10.522Z,3.58
2022-11-24T15:51:13.479Z,3.17
2022-11-24T15:53:26.898Z,3.10
2022-11-24T15:55:28.403Z,3.22
2022-11-24T15:57:30.258Z,3.10
2022-11-24T15:59:33.911Z,3.00
2022-11-24T16:01:38.223Z,3.03
2022-11-24T16:03:51.929Z,2.67
2022-11-24T16:05:54.637Z,2.72
2022-11-24T16:07:56.160Z,2.95
2022-11-24T16:09:57.610Z,2.75
2022-11-24T16:12:32.779Z,2.85
2022-11-24T16:14:35.327Z,3.72
2022-11-24T16:17:09.493Z,2.78
2022-11-24T16:19:11.134Z,3.28
2022-11-24T16:21:12.695Z,2.78
2022-11-24T16:23:16.900Z,3.03
2022-11-24T16:25:18.795Z,3.08
2022-11-24T16:27:30.718Z,3.65
2022-11-24T16:29:56.484Z,3.55
2022-11-24T16:31:58.111Z,2.90
2022-11-24T16:33:59.698Z,3.05
2022-11-24T16:36:01.216Z,3.35
2022-11-24T16:38:31.854Z,3.20
2022-11-24T16:40:33.336Z,2.70
2022-11-24T16:42:35.120Z,4.05
2022-11-24T16:44:45.701Z,3.10
2022-11-24T16:46:47.172Z,3.28
2022-11-24T16:48:52.542Z,3.30
2022-11-24T16:50:54.148Z,3.45
2022-11-24T16:53:01.370Z,3.10
2022-11-24T16:57:44.185Z,3.17
2022-11-24T16:59:46.431Z,2.70
2022-11-24T17:01:50.503Z,3.30
2022-11-24T17:04:00.916Z,3.08
2022-11-24T17:06:09.999Z,3.38
2022-11-24T17:08:11.528Z,3.47
2022-11-24T17:10:15.925Z,3.03
2022-11-24T17:12:17.480Z,3.30
2022-11-24T17:15:16.528Z,5.15
2022-11-24T17:17:16.944Z,2.53
2022-11-24T17:19:18.695Z,4.00
2022-11-24T17:21:21.777Z,3.05
2022-11-24T17:24:04.340Z,3.05
2022-11-24T17:26:06.970Z,3.35
2022-11-24T17:28:42.653Z,2.85
2022-11-24T17:30:44.128Z,3.20
2022-11-24T17:32:45.764Z,3.10
2022-11-24T17:34:53.493Z,3.58
2022-11-24T17:36:55.060Z,3.95
2022-11-24T17:38:56.670Z,3.05
2022-11-24T17:40:58.375Z,7.93
2022-11-24T17:43:05.417Z,3.58
2022-11-24T17:45:07.093Z,3.75
2022-11-24T17:47:08.498Z,2.63
2022-11-24T17:49:17.391Z,3.25
2022-11-24T17:51:20.256Z,2.70
2022-11-24T17:53:21.590Z,2.97
2022-11-24T17:58:50.690Z,3.67
2022-11-24T18:03:08.561Z,3.22
2022-11-24T18:05:12.551Z,3.25
2022-11-24T18:07:19.465Z,4.03
2022-11-24T18:09:27.816Z,3.42
2022-11-24T18:11:31.900Z,3.90
2022-11-24T18:13:55.639Z,3.83
2022-11-24T18:15:55.237Z,4.43
2022-11-24T18:17:59.289Z,4.10
2022-11-24T18:20:00.614Z,3.83
2022-11-24T18:22:02.067Z,4.32
2022-11-24T18:24:03.784Z,3.75
2022-11-24T18:26:05.717Z,4.07
2022-11-24T18:28:07.280Z,4.28
2022-11-24T18:30:40.037Z,4.20
2022-11-24T18:32:41.621Z,10.77
2022-11-24T18:34:43.158Z,4.28
2022-11-24T18:36:52.686Z,4.40
2022-11-24T18:38:54.241Z,4.22
2022-11-24T18:40:56.823Z,4.18
2022-11-24T18:42:59.492Z,3.95
2022-11-24T18:45:01.603Z,4.03
2022-11-24T18:47:05.838Z,4.50
2022-11-24T18:49:07.630Z,4.10
2022-11-24T18:51:16.571Z,4.57
2022-11-24T18:53:42.933Z,3.90
2022-11-24T18:55:44.467Z,4.10
2022-11-24T18:57:55.118Z,3.97
2022-11-24T18:59:56.622Z,4.15
2022-11-24T19:01:58.184Z,4.20
2022-11-24T19:04:01.782Z,4.53
2022-11-24T19:06:04.561Z,3.80
2022-11-24T19:08:06.287Z,3.90
2022-11-24T19:12:31.300Z,4.05
2022-11-24T19:14:32.918Z,3.65
2022-11-24T19:16:35.100Z,4.30
2022-11-24T19:18:36.441Z,4.00
2022-11-24T19:20:37.811Z,3.97
2022-11-24T19:22:50.976Z,4.05
2022-11-24T19:24:54.945Z,3.92
2022-11-24T19:26:56.867Z,3.90
2022-11-24T19:28:58.361Z,3.75
2022-11-24T19:31:03.225Z,3.70
2022-11-24T19:33:06.868Z,3.33
2022-11-24T19:35:08.480Z,4.53
2022-11-24T19:37:16.120Z,3.92
2022-11-24T19:39:17.671Z,3.80
2022-11-24T19:41:20.252Z,4.20
2022-11-24T19:43:21.992Z,4.35
2022-11-24T19:45:37.651Z,4.20
2022-11-24T19:47:57.654Z,4.05
2022-11-24T19:49:59.310Z,4.00
2022-11-24T19:52:01.741Z,4.47
2022-11-24T19:54:04.370Z,4.38
2022-11-24T19:56:06.493Z,4.05
2022-11-24T19:58:07.861Z,4.50
2022-11-24T20:00:18.504Z,4.10
2022-11-24T20:02:20.068Z,4.32
2022-11-24T20:04:21.601Z,4.07
2022-11-24T20:06:22.945Z,4.25
2022-11-24T20:08:24.463Z,4.22
2022-11-24T20:10:25.818Z,4.10
2022-11-24T20:13:01.378Z,4.03
2022-11-24T20:15:04.086Z,3.85
2022-11-24T20:17:06.939Z,4.55
2022-11-24T20:22:05.960Z,4.07
2022-11-24T20:24:10.055Z,4.00
2022-11-24T20:26:12.776Z,4.28
2022-11-24T20:28:14.160Z,4.28
2022-11-24T20:30:15.673Z,3.78
2022-11-24T20:32:20.300Z,4.05
2022-11-24T20:34:22.218Z,4.80
2022-11-24T20:36:32.584Z,4.00
2022-11-24T20:38:34.702Z,4.78
2022-11-24T20:40:46.422Z,4.40
2022-11-24T20:42:47.834Z,4.53
2022-11-24T20:44:49.225Z,4.32
2022-11-24T20:46:50.818Z,4.47
2022-11-24T20:48:53.225Z,4.03
2022-11-24T20:50:54.743Z,4.38
2022-11-24T20:53:02.448Z,4.20
2022-11-24T20:55:04.142Z,3.47
2022-11-24T20:57:05.675Z,3.65
2022-11-24T20:59:07.823Z,3.80
2022-11-24T21:01:11.056Z,4.10
2022-11-24T21:03:20.573Z,3.90
2022-11-24T21:05:21.963Z,6.95
2022-11-24T21:07:23.412Z,4.05
2022-11-24T21:09:27.115Z,3.90
2022-11-24T21:11:28.396Z,3.60
2022-11-24T21:13:31.859Z,3.65
2022-11-24T21:15:33.639Z,3.70
2022-11-24T21:17:35.288Z,4.18
2022-11-24T21:19:42.356Z,4.18
2022-11-24T21:21:44.175Z,4.50
2022-11-24T21:23:45.637Z,4.25
2022-11-24T21:26:21.645Z,3.90
2022-11-24T21:28:23.679Z,3.80
2022-11-24T21:30:25.981Z,4.70
2022-11-24T21:32:28.289Z,5.00
2022-11-24T21:34:29.775Z,5.25
2022-11-24T21:36:31.777Z,4.85
2022-11-24T21:38:33.315Z,4.97
2022-11-24T21:40:34.923Z,4.88
2022-11-24T21:42:36.302Z,5.47
2022-11-24T21:44:37.766Z,5.28
2022-11-24T21:47:13.101Z,5.15
2022-11-24T21:49:52.237Z,4.90
2022-11-24T21:51:56.569Z,5.43
2022-11-24T21:53:57.965Z,5.25
2022-11-24T21:56:05.979Z,5.22
2022-11-24T21:58:07.431Z,5.10
2022-11-24T22:00:08.937Z,5.35
2022-11-24T22:02:13.195Z,7.00
2022-11-24T22:04:14.942Z,6.22
2022-11-24T22:06:47.088Z,5.60
2022-11-24T22:08:49.056Z,5.68
2022-11-24T22:10:50.800Z,6.03
2022-11-24T22:12:52.180Z,5.15
2022-11-24T22:14:53.570Z,5.25
2022-11-24T22:17:31.666Z,5.90
2022-11-24T22:19:36.014Z,4.90
2022-11-24T22:21:37.358Z,5.32
2022-11-24T22:23:38.875Z,5.75
2022-11-24T22:25:46.415Z,5.30
2022-11-24T22:27:48.790Z,5.53
2022-11-24T22:29:54.120Z,5.88
2022-11-24T22:31:55.788Z,5.35
2022-11-24T22:33:57.811Z,5.63
2022-11-24T22:36:33.360Z,5.68
2022-11-24T22:38:37.906Z,5.97
2022-11-24T22:40:39.286Z,5.22
2022-11-24T22:42:46.705Z,5.20
2022-11-24T22:44:48.052Z,4.72
2022-11-24T22:46:52.233Z,5.32
2022-11-24T22:48:54.374Z,4.55
2022-11-24T22:51:00.505Z,4.35
2022-11-24T22:53:01.882Z,4.90
2022-11-24T22:55:06.581Z,4.95
2022-11-24T22:57:07.974Z,4.60
2022-11-24T22:59:43.154Z,4.80
2022-11-24T23:01:44.626Z,4.80
2022-11-24T23:03:46.825Z,4.25
2022-11-24T23:05:48.362Z,4.50
2022-11-24T23:07:49.803Z,3.90
2022-11-24T23:09:51.409Z,4.30
2022-11-24T23:11:52.787Z,4.30
2022-11-24T23:13:55.010Z,4.38
2022-11-24T23:16:07.263Z,4.38
2022-11-24T23:18:08.687Z,4.28
2022-11-24T23:20:18.736Z,4.50
2022-11-24T23:22:20.207Z,4.78
2022-11-24T23:24:21.665Z,4.82
2022-11-24T23:26:24.472Z,4.80
2022-11-24T23:28:25.837Z,4.93
2022-11-24T23:30:29.934Z,4.45
2022-11-24T23:32:31.348Z,4.25
2022-11-24T23:34:32.826Z,4.45
2022-11-24T23:36:34.376Z,4.38
2022-11-24T23:38:39.075Z,4.40
2022-11-24T23:40:40.451Z,4.47
2022-11-24T23:42:41.879Z,4.88
2022-11-24T23:44:43.286Z,5.10
2022-11-24T23:46:44.629Z,4.25
2022-11-24T23:48:46.188Z,4.95
2022-11-24T23:50:47.606Z,4.55
2022-11-24T23:55:55.249Z,5.68
